< < Back
Terminal Aerodrome Forecast


Current Version              Previous Versions:   1  2  3  4  5  6  7  8  9  

Terminal Aerodrome Forecast

808
FTUS42 KCHS 011500 AAA
TAFCHS
TAF AMD
KCHS 011511Z 0115/0212 VRB05KT P6SM SCT020 BKN035
      TEMPO 0117/0119 6SM TSRA SCT025CB
     FM011900 14007KT P6SM SCT025 BKN150
     FM020400 VRB04KT P6SM VCSH SCT020 BKN035=



Latest METAR

463
SAUS80 KWBC 011600 CCB
MTRCHS
METAR KCHS 011556Z 07005KT 10SM SCT025 BKN035 BKN250 32/22 A3002 RMK AO2
SLP163 T03170222


USA.gov is the U.S. government's official web portal to all federal, state and local government web resources and services.